Las Vegas Municipal Airport Las Vegas US
ICAO: KLVS
IATA: LVS
Category: Medium
Scheduled Services: No

Elevation: 6877 ft
TransAlt. 18000 ft.

Airport Communications:
ASOS:118.525
ALBUQUERQUE CNTR:132.8
ALBUQUERQUE RDO:122.6
CTAF/UNICOM:122.8

KLVS Zoom In..

Runways:

(A) RW 02 length 5006 ft width 75 ft
---- / hdg 22

(B) RW 14 length 8199 ft width 75 ft
---- / hdg 139

(C) RW 20 length 5006 ft width 75 ft
---- / hdg 202

(D) RW 32 length 8199 ft width 75 ft
---- / hdg 319

Location; KLVS
Day. 19 / Time. 20.53 Zulu
* Altimeter: 30.28
* Temperature: 29° c. 84.2°f.
* Wind from: 220° Speed 14 kn.
Dewpoint: 06° c.
Visibility: 10 Statute Miles.
Clouds: Clear (automated report).

KLVS 192053Z AUTO 22014KT 10SM CLR 29/06 A3028 RMK AO2 PK WND 28030/1958 LTG DSNT E AND SE SLP126 T02940061 58003


Wind From 220°
Speed 14 kn.

 
 
jpsmedia.com for Web Design worldairports.se 2018   terms of use